Drummond Island, MI

4:29 PM EDT on August 03, 2015 (GMT -0400)
Potagannissing Bay Front | | Change Station
CLOSE
Current Station
Personal Weather Station
Location: Drummond Island, MI
Elevation: 587 ft
Nearby Weather Stations

Elev 587 ft 46.06 °N, 83.67 °W | Updated 2 seconds ago

Rain
Rain
60.9 °F
Feels Like 60.9 °F
N
14.0
Wind Variable Wind from NW
Gusts 26.0 mph

Today
High -- | Low -- °F
--% Chance of Precip.
Yesterday
High -- | Low -- °F
Precip. -- in
6:19 AM 9:01 PM
Waning Gibbous, 84% visible
Pressure 29.73 in
Visibility 10.0 miles
Clouds Scattered Clouds 2900 ft
Scattered Clouds 4100 ft
Overcast 5000 ft
Dew Point 58 °F
Humidity 90%
Rainfall 0.02 in
Snow Depth Not available.
UV 2 out of 12
Pollen 5.40 out of 12
Air Quality Not available.
Flu Activity Not available.
METAR KDRM 032014Z AUTO 27005KT 10SM SCT029 SCT041 OVC050 19/14 A2973 RMK AO2 T01850135

More Conditions Fewer Conditions

Pressure 29.73 in
Visibility 10.0 miles
Clouds Scattered Clouds 2900 ft
Scattered Clouds 4100 ft
Overcast 5000 ft
Dew Point 58 °F
Humidity 90%
Rainfall 0.02 in
Snow Depth Not available.
UV 2 out of 12
Pollen 5.40 out of 12
Air Quality Not available.
Flu Activity Not available.
METAR KDRM 032014Z AUTO 27005KT 10SM SCT029 SCT041 OVC050 19/14 A2973 RMK AO2 T01850135

More Conditions Fewer Conditions

Nowcast | as of 4:00 PM EDT on August 3, 2015

At 5 PM...mostly cloudy. Temperature 65. Northwest winds 14 mph. At 7 PM...partly cloudy. Temperature 63. Northwest winds 12 mph. At 9 PM...partly cloudy. Temperature 59. Northwest winds 8 mph. At 11 PM...partly cloudy. Temperature 56. Northwest winds 5 mph.

×

10-Day Weather Forecast

×

Almanac

Astronomy

Aug. 03, 2015 Rise Set
Actual Time
Civil Twilight
Nautical Twilight
Astronomical Twilight
Moon
Length of Visible Light
Length of Day
Tomorrow will be .
, % of the Moon is Illuminated

Today's Extremes

State Highs State Lows

Community

WunderPhotos

Upload Photos

1,843,743 photos uploaded!

WunderBlogs® & News

Nearby

Air Quality

  Air Quality AQ Index Pollutant
Not available.

Snow Depth

Station Depth Elevation

Earthquake Activity

City Distance Mag. Time & Date
Minimum magnitude displayed is 2.5.

Coastal Water Temperatures

Place Temperature

Stations

Nearby Weather Stations

Station Location Temp. Windchill Dew Point Humidity Wind Precip. Elev Updated Type